Terminal Aerodrome Forecast
Issued by NWS

Current Version | Previous Version | Graphics & Text | Print | Product List | Glossary On
Versions: 1 2 3 4 5 6 7 8 9 10 11 12 13 14 15 16 17 18 19 20 21 22 23
952
FTUS41 KRLX 170934 AAB
TAFCKB
TAF AMD
KCKB 170934Z 1710/1806 00000KT 1/4SM FG BKN001
     FM171230 00000KT 3SM BR SCT001
     FM171300 24006KT P6SM SKC=

USA.gov is the U.S. government's official web portal to all federal, state and local government web resources and services.